createdAt,value
2022-11-08T00:00:09.200Z,35.5290
2022-11-08T00:00:20.252Z,35.5230
2022-11-08T00:00:31.288Z,35.5290
2022-11-08T00:00:42.485Z,35.5180
2022-11-08T00:00:53.529Z,35.5290
2022-11-08T00:01:04.577Z,35.5120
2022-11-08T00:01:15.758Z,35.5180
2022-11-08T00:01:27.053Z,35.5180
2022-11-08T00:01:38.241Z,35.5290
2022-11-08T00:01:49.433Z,35.5320
2022-11-08T00:02:00.671Z,35.5560
2022-11-08T00:02:11.887Z,35.5890
2022-11-08T00:02:23.308Z,35.6120
2022-11-08T00:02:34.731Z,35.6530
2022-11-08T00:02:46.059Z,35.7020
2022-11-08T00:02:57.236Z,35.6920
2022-11-08T00:03:08.514Z,35.6410
2022-11-08T00:03:19.697Z,35.5320
2022-11-08T00:03:30.799Z,35.5110
2022-11-08T00:03:42.008Z,35.5010
2022-11-08T00:03:53.049Z,35.4800
2022-11-08T00:04:04.100Z,35.4860
2022-11-08T00:04:15.278Z,35.5020
2022-11-08T00:04:26.328Z,35.5380
2022-11-08T00:04:37.368Z,35.5310
2022-11-08T00:04:48.560Z,35.5140
2022-11-08T00:04:59.600Z,35.5250
2022-11-08T00:05:10.649Z,35.5490
2022-11-08T00:05:21.738Z,35.5570
2022-11-08T00:05:32.798Z,35.5870
2022-11-08T00:05:43.925Z,35.6040
2022-11-08T00:05:55.122Z,35.6150
2022-11-08T00:06:06.149Z,35.6190
2022-11-08T00:06:17.199Z,35.6040
2022-11-08T00:06:28.398Z,35.6040
2022-11-08T00:06:39.449Z,35.6080
2022-11-08T00:06:50.518Z,35.5800
2022-11-08T00:07:01.678Z,35.5720
2022-11-08T00:07:12.730Z,35.5720
2022-11-08T00:07:23.813Z,35.5670
2022-11-08T00:07:34.978Z,35.5670
2022-11-08T00:07:46.030Z,35.5610
2022-11-08T00:07:57.089Z,35.5720
2022-11-08T00:08:08.237Z,35.5500
2022-11-08T00:08:19.718Z,35.5370
2022-11-08T00:08:31.318Z,35.5670
2022-11-08T00:08:42.405Z,35.5780
2022-11-08T00:08:53.460Z,35.5200
2022-11-08T00:09:04.559Z,35.4870
2022-11-08T00:09:15.614Z,35.4750
2022-11-08T00:09:26.670Z,35.4570
2022-11-08T00:09:37.839Z,35.4120
2022-11-08T00:09:49.042Z,35.3840
2022-11-08T00:10:00.247Z,35.3490
2022-11-08T00:10:11.450Z,35.3040
2022-11-08T00:10:22.639Z,35.3090
2022-11-08T00:10:33.840Z,35.2910
2022-11-08T00:10:45.038Z,35.2740
2022-11-08T00:10:56.075Z,35.2740
2022-11-08T00:11:07.118Z,35.2460
2022-11-08T00:11:18.340Z,35.2290
2022-11-08T00:11:29.518Z,35.2180
2022-11-08T00:11:40.720Z,35.1940
2022-11-08T00:11:51.920Z,35.1720
2022-11-08T00:12:02.977Z,35.1490
2022-11-08T00:12:14.013Z,35.0580
2022-11-08T00:12:25.050Z,35.0200
2022-11-08T00:12:36.110Z,34.9740
2022-11-08T00:12:47.278Z,34.9280
2022-11-08T00:12:58.479Z,34.9560
2022-11-08T00:13:09.708Z,34.9620
2022-11-08T00:13:20.878Z,34.9560
2022-11-08T00:13:31.989Z,34.9240
2022-11-08T00:13:43.049Z,34.9130
2022-11-08T00:13:54.160Z,34.8730
2022-11-08T00:14:05.361Z,34.8520
2022-11-08T00:14:16.410Z,34.8120
2022-11-08T00:14:27.449Z,34.7850
2022-11-08T00:14:38.650Z,34.7960
2022-11-08T00:14:49.739Z,34.8240
2022-11-08T00:15:00.800Z,34.9040
2022-11-08T00:15:11.919Z,34.9640
2022-11-08T00:15:23.118Z,34.9080
2022-11-08T00:15:34.161Z,34.8480
2022-11-08T00:15:45.208Z,34.8020
2022-11-08T00:15:56.279Z,34.7450
2022-11-08T00:16:07.338Z,34.6940
2022-11-08T00:16:18.399Z,34.7070
2022-11-08T00:16:29.525Z,34.7020
2022-11-08T00:16:40.558Z,34.7180
2022-11-08T00:16:51.609Z,34.7220
2022-11-08T00:17:02.678Z,34.7170
2022-11-08T00:17:13.836Z,34.6780
2022-11-08T00:17:24.882Z,34.6590
2022-11-08T00:17:35.929Z,34.6540
2022-11-08T00:17:47.159Z,34.6660
2022-11-08T00:17:58.208Z,34.6950
2022-11-08T00:18:09.268Z,34.7550
2022-11-08T00:18:20.653Z,34.7610
2022-11-08T00:18:31.959Z,34.7440
2022-11-08T00:18:43.118Z,34.6920
2022-11-08T00:18:54.318Z,34.6810
2022-11-08T00:19:05.518Z,34.6640
2022-11-08T00:19:16.708Z,34.6420
2022-11-08T00:19:27.760Z,34.6070
2022-11-08T00:19:38.799Z,34.5960
2022-11-08T00:19:49.999Z,34.5680
2022-11-08T00:20:01.079Z,34.5680
2022-11-08T00:20:12.131Z,34.5100
2022-11-08T00:20:23.280Z,34.5220
2022-11-08T00:20:34.488Z,34.5850
2022-11-08T00:20:45.680Z,34.6360
2022-11-08T00:20:56.879Z,34.6240
2022-11-08T00:21:08.078Z,34.6070
2022-11-08T00:21:19.285Z,34.5570
2022-11-08T00:21:30.484Z,34.5050
2022-11-08T00:21:41.694Z,34.4940
2022-11-08T00:21:52.879Z,34.4880
2022-11-08T00:22:03.928Z,34.5220
2022-11-08T00:22:15.001Z,34.5270
2022-11-08T00:22:26.162Z,34.5220
2022-11-08T00:22:37.359Z,34.5270
2022-11-08T00:22:48.589Z,34.5220
2022-11-08T00:22:59.639Z,34.4450
2022-11-08T00:23:10.718Z,34.4210
2022-11-08T00:23:21.840Z,34.4200
2022-11-08T00:23:33.044Z,34.3970
2022-11-08T00:23:44.238Z,34.3810
2022-11-08T00:23:55.438Z,34.3680
2022-11-08T00:24:06.640Z,34.3710
2022-11-08T00:24:17.839Z,34.3540
2022-11-08T00:24:29.038Z,34.3080
2022-11-08T00:24:40.245Z,34.3030
2022-11-08T00:24:51.439Z,34.3290
2022-11-08T00:25:02.504Z,34.3290
2022-11-08T00:25:13.558Z,34.3250
2022-11-08T00:25:24.719Z,34.3880
2022-11-08T00:25:35.918Z,34.3880
2022-11-08T00:25:47.120Z,34.3420
2022-11-08T00:25:58.318Z,34.3310
2022-11-08T00:26:09.519Z,34.2570
2022-11-08T00:26:20.719Z,34.2010
2022-11-08T00:26:31.920Z,34.1600
2022-11-08T00:26:42.969Z,34.1430
2022-11-08T00:26:54.009Z,34.1160
2022-11-08T00:27:05.200Z,34.1280
2022-11-08T00:27:16.249Z,34.1310
2022-11-08T00:27:27.287Z,34.1050
2022-11-08T00:27:38.478Z,34.1220
2022-11-08T00:27:49.549Z,34.1590
2022-11-08T00:28:00.586Z,34.1540
2022-11-08T00:28:11.760Z,34.1430
2022-11-08T00:28:22.834Z,34.1100
2022-11-08T00:28:33.849Z,34.0640
2022-11-08T00:28:45.042Z,34.0420
2022-11-08T00:28:56.247Z,34.0360
2022-11-08T00:29:07.280Z,34.0060
2022-11-08T00:29:18.358Z,33.9620
2022-11-08T00:29:29.409Z,33.9630
2022-11-08T00:29:40.472Z,33.9930
2022-11-08T00:29:51.604Z,33.9840
2022-11-08T00:30:02.797Z,33.8820
2022-11-08T00:30:14.062Z,33.8710
2022-11-08T00:30:25.198Z,33.8820
2022-11-08T00:30:36.399Z,33.9100
2022-11-08T00:30:47.598Z,33.9390
2022-11-08T00:30:58.676Z,33.9680
2022-11-08T00:31:09.732Z,34.0200
2022-11-08T00:31:20.880Z,34.1160
2022-11-08T00:31:31.918Z,34.1550
2022-11-08T00:31:42.959Z,34.1440
2022-11-08T00:31:54.160Z,34.1040
2022-11-08T00:32:05.365Z,34.1210
2022-11-08T00:32:16.590Z,34.1130
2022-11-08T00:32:27.758Z,34.0170
2022-11-08T00:32:38.799Z,33.9780
2022-11-08T00:32:49.878Z,33.9540
2022-11-08T00:33:01.048Z,33.9430
2022-11-08T00:33:12.089Z,33.9630
2022-11-08T00:33:23.160Z,33.9520
2022-11-08T00:33:34.319Z,33.9360
2022-11-08T00:33:45.361Z,33.9410
2022-11-08T00:33:56.408Z,33.9590
2022-11-08T00:34:07.599Z,33.9200
2022-11-08T00:34:18.798Z,33.8690
2022-11-08T00:34:30.014Z,33.7900
2022-11-08T00:34:41.199Z,33.7360
2022-11-08T00:34:52.398Z,33.7020
2022-11-08T00:35:03.598Z,33.6700
2022-11-08T00:35:14.806Z,33.6590
2022-11-08T00:35:26.006Z,33.6530
2022-11-08T00:35:37.198Z,33.7340
2022-11-08T00:35:48.250Z,33.7450
2022-11-08T00:35:59.288Z,33.7290
2022-11-08T00:36:10.479Z,33.6740
2022-11-08T00:36:21.679Z,33.6620
2022-11-08T00:36:32.719Z,33.6600
2022-11-08T00:36:43.759Z,33.6600
2022-11-08T00:36:54.810Z,33.6490
2022-11-08T00:37:05.848Z,33.6410
2022-11-08T00:37:17.047Z,33.6410
2022-11-08T00:37:28.239Z,33.6640
2022-11-08T00:37:39.430Z,33.6240
2022-11-08T00:37:50.675Z,33.6410
2022-11-08T00:38:01.853Z,33.6590
2022-11-08T00:38:13.037Z,33.6530
2022-11-08T00:38:24.228Z,33.6340
2022-11-08T00:38:35.439Z,33.6450
2022-11-08T00:38:46.638Z,33.6560
2022-11-08T00:38:57.679Z,33.6280
2022-11-08T00:39:08.758Z,33.6400
2022-11-08T00:39:19.918Z,33.6620
2022-11-08T00:39:30.958Z,33.7410
2022-11-08T00:39:42.029Z,33.7470
2022-11-08T00:39:53.198Z,33.7410
2022-11-08T00:40:04.249Z,33.7280
2022-11-08T00:40:15.288Z,33.5980
2022-11-08T00:40:26.478Z,33.5810
2022-11-08T00:40:37.576Z,33.5700
2022-11-08T00:40:48.628Z,33.6230
2022-11-08T00:40:59.762Z,33.5490
2022-11-08T00:41:10.819Z,33.5150
2022-11-08T00:41:21.889Z,33.4300
2022-11-08T00:41:33.038Z,33.4020
2022-11-08T00:41:44.244Z,33.4640
2022-11-08T00:41:55.341Z,33.4490
2022-11-08T00:42:06.409Z,33.4210
2022-11-08T00:42:17.484Z,33.3980
2022-11-08T00:42:28.529Z,33.3590
2022-11-08T00:42:39.597Z,33.3950
2022-11-08T00:42:50.807Z,33.3780
2022-11-08T00:43:01.942Z,33.3780
2022-11-08T00:43:13.019Z,33.3730
2022-11-08T00:43:24.080Z,33.3550
2022-11-08T00:43:35.302Z,33.3270
2022-11-08T00:43:46.479Z,33.3640
2022-11-08T00:43:57.678Z,33.3640
2022-11-08T00:44:08.719Z,33.3570
2022-11-08T00:44:19.769Z,33.3390
2022-11-08T00:44:30.958Z,33.3000
2022-11-08T00:44:42.159Z,33.3000
2022-11-08T00:44:53.359Z,33.3800
2022-11-08T00:45:04.559Z,33.4420
2022-11-08T00:45:15.768Z,33.4130
2022-11-08T00:45:26.992Z,33.4010
2022-11-08T00:45:38.206Z,33.3770
2022-11-08T00:45:49.359Z,33.4230
2022-11-08T00:46:00.559Z,33.3950
2022-11-08T00:46:11.760Z,33.3660
2022-11-08T00:46:22.959Z,33.3380
2022-11-08T00:46:34.159Z,33.3030
2022-11-08T00:46:45.359Z,33.2420
2022-11-08T00:46:56.415Z,33.1860
2022-11-08T00:47:07.448Z,33.1860
2022-11-08T00:47:18.651Z,33.1860
2022-11-08T00:47:29.841Z,33.1820
2022-11-08T00:47:41.040Z,33.1710
2022-11-08T00:47:52.239Z,33.1590
2022-11-08T00:48:03.500Z,33.1700
2022-11-08T00:48:14.884Z,33.2050
2022-11-08T00:48:26.190Z,33.2660
2022-11-08T00:48:37.361Z,33.2720
2022-11-08T00:48:48.419Z,33.2840
2022-11-08T00:48:59.480Z,33.2900
2022-11-08T00:49:10.640Z,33.2000
2022-11-08T00:49:21.869Z,33.1540
2022-11-08T00:49:32.888Z,33.2160
2022-11-08T00:49:43.958Z,33.1820
2022-11-08T00:49:55.127Z,33.1600
2022-11-08T00:50:06.320Z,33.1320
2022-11-08T00:50:17.519Z,33.1420
2022-11-08T00:50:28.718Z,33.2100
2022-11-08T00:50:39.919Z,33.1990
2022-11-08T00:50:50.960Z,33.1650
2022-11-08T00:51:01.999Z,33.1990
2022-11-08T00:51:13.203Z,33.2160
2022-11-08T00:51:24.398Z,33.2440
2022-11-08T00:51:35.599Z,33.1600
2022-11-08T00:51:46.807Z,33.1540
2022-11-08T00:51:57.998Z,33.1290
2022-11-08T00:52:09.201Z,33.1520
2022-11-08T00:52:20.398Z,33.2080
2022-11-08T00:52:31.588Z,33.2420
2022-11-08T00:52:42.799Z,33.2420
2022-11-08T00:52:54.001Z,33.1860
2022-11-08T00:53:05.229Z,33.1180
2022-11-08T00:53:16.400Z,33.1400
2022-11-08T00:53:27.600Z,33.1750
2022-11-08T00:53:38.658Z,33.1520
2022-11-08T00:53:49.730Z,33.1230
2022-11-08T00:54:00.880Z,33.1180
2022-11-08T00:54:11.980Z,33.0840
2022-11-08T00:54:23.048Z,33.0650
2022-11-08T00:54:34.158Z,33.0650
2022-11-08T00:54:45.210Z,33.0820
2022-11-08T00:54:56.258Z,33.0820
2022-11-08T00:55:07.439Z,33.0820
2022-11-08T00:55:18.669Z,33.0370
2022-11-08T00:55:29.839Z,33.0370
2022-11-08T00:55:41.042Z,33.0600
2022-11-08T00:55:52.089Z,33.0370
2022-11-08T00:56:03.166Z,33.0540
2022-11-08T00:56:14.320Z,33.0480
2022-11-08T00:56:25.519Z,33.0520
2022-11-08T00:56:36.726Z,33.0230
2022-11-08T00:56:47.920Z,33.0580
2022-11-08T00:56:59.119Z,33.0740
2022-11-08T00:57:10.318Z,33.0630
2022-11-08T00:57:27.518Z,33.0290
2022-11-08T00:57:58.043Z,33.1630
2022-11-08T00:58:00.040Z,33.2590
2022-11-08T00:58:12.419Z,33.2440
2022-11-08T00:58:27.497Z,33.1380
2022-11-08T00:58:39.024Z,33.1680
2022-11-08T00:58:50.160Z,33.0890
2022-11-08T00:59:01.360Z,33.0160
2022-11-08T00:59:12.558Z,32.9900
2022-11-08T00:59:23.794Z,33.0070
2022-11-08T00:59:34.816Z,33.0070
2022-11-08T00:59:45.870Z,33.0520
2022-11-08T00:59:57.053Z,33.0230
2022-11-08T01:00:08.109Z,32.9860
2022-11-08T01:00:19.168Z,32.9690
2022-11-08T01:00:30.318Z,32.9640
2022-11-08T01:00:41.524Z,32.9310
2022-11-08T01:00:52.759Z,32.9070
2022-11-08T01:01:03.973Z,32.8850
2022-11-08T01:01:15.117Z,32.8960
2022-11-08T01:01:26.558Z,32.9970
2022-11-08T01:01:38.060Z,33.0220
2022-11-08T01:01:49.531Z,32.9550
2022-11-08T01:02:00.782Z,32.9270
2022-11-08T01:02:11.958Z,32.8700
2022-11-08T01:02:23.070Z,32.8700
2022-11-08T01:02:34.260Z,32.8400
2022-11-08T01:02:45.359Z,32.8340
2022-11-08T01:02:56.559Z,32.8120
2022-11-08T01:03:07.608Z,32.7950
2022-11-08T01:03:18.678Z,32.7790
2022-11-08T01:03:29.840Z,32.7840
2022-11-08T01:03:41.040Z,32.7700
2022-11-08T01:03:52.238Z,32.7590
2022-11-08T01:04:03.441Z,32.8130
2022-11-08T01:04:14.645Z,32.8700
2022-11-08T01:04:25.838Z,32.9080
2022-11-08T01:04:37.045Z,32.8920
2022-11-08T01:04:48.240Z,32.8900
2022-11-08T01:04:59.439Z,32.8950
2022-11-08T01:05:10.488Z,32.9010
2022-11-08T01:05:21.560Z,32.8790
2022-11-08T01:05:32.729Z,32.8440
2022-11-08T01:05:43.918Z,32.8500
2022-11-08T01:05:55.120Z,32.8430
2022-11-08T01:06:06.166Z,32.7710
2022-11-08T01:06:17.210Z,32.7600
2022-11-08T01:06:28.400Z,32.7550
2022-11-08T01:06:39.598Z,32.7550
2022-11-08T01:06:50.800Z,32.7550
2022-11-08T01:07:01.999Z,32.7550
2022-11-08T01:07:13.199Z,32.7210
2022-11-08T01:07:24.238Z,32.7550
2022-11-08T01:07:35.288Z,32.7210
2022-11-08T01:07:46.479Z,32.7230
2022-11-08T01:07:57.529Z,32.7400
2022-11-08T01:08:08.570Z,32.7520
2022-11-08T01:08:20.429Z,32.7690
2022-11-08T01:08:31.964Z,32.8440
2022-11-08T01:08:43.119Z,32.8950
2022-11-08T01:08:54.318Z,32.9070
2022-11-08T01:09:05.369Z,32.9180
2022-11-08T01:09:16.414Z,32.9010
2022-11-08T01:09:27.598Z,32.8000
2022-11-08T01:09:38.815Z,32.7340
2022-11-08T01:09:50.000Z,32.7120
2022-11-08T01:10:01.199Z,32.7120
2022-11-08T01:10:12.408Z,32.6900
2022-11-08T01:10:23.469Z,32.6730
2022-11-08T01:10:34.518Z,32.6640
2022-11-08T01:10:45.678Z,32.6470
2022-11-08T01:10:56.881Z,32.6530
2022-11-08T01:11:08.080Z,32.6470
2022-11-08T01:11:19.286Z,32.6280
2022-11-08T01:11:30.478Z,32.5950
2022-11-08T01:11:41.681Z,32.5660
2022-11-08T01:11:52.721Z,32.6030
2022-11-08T01:12:03.769Z,32.6700
2022-11-08T01:12:14.959Z,32.6930
2022-11-08T01:12:26.173Z,32.6540
2022-11-08T01:12:37.209Z,32.6330
2022-11-08T01:12:48.250Z,32.6000
2022-11-08T01:12:59.439Z,32.5890
2022-11-08T01:13:10.639Z,32.5840
2022-11-08T01:13:21.870Z,32.5890
2022-11-08T01:13:32.920Z,32.5920
2022-11-08T01:13:44.018Z,32.5860
2022-11-08T01:13:55.119Z,32.5920
2022-11-08T01:14:06.320Z,32.5590
2022-11-08T01:14:17.519Z,32.5530
2022-11-08T01:14:28.723Z,32.5810
2022-11-08T01:14:39.808Z,32.5860
2022-11-08T01:14:50.879Z,32.5810
2022-11-08T01:15:02.090Z,32.5860
2022-11-08T01:15:13.306Z,32.6010
2022-11-08T01:15:24.458Z,32.6180
2022-11-08T01:15:35.647Z,32.5960
2022-11-08T01:15:46.932Z,32.6180
2022-11-08T01:15:58.347Z,32.6420
2022-11-08T01:16:09.519Z,32.6130
2022-11-08T01:16:20.560Z,32.6310
2022-11-08T01:16:31.609Z,32.6480
2022-11-08T01:16:42.800Z,32.6810
2022-11-08T01:16:54.008Z,32.6920
2022-11-08T01:17:05.241Z,32.7030
2022-11-08T01:17:16.406Z,32.7150
2022-11-08T01:17:27.465Z,32.6640
2022-11-08T01:17:38.508Z,32.6420
2022-11-08T01:17:49.678Z,32.6370
2022-11-08T01:18:00.879Z,32.6590
2022-11-08T01:18:12.078Z,32.7030
2022-11-08T01:18:23.313Z,32.7030
2022-11-08T01:18:34.479Z,32.6750
2022-11-08T01:18:45.680Z,32.6480
2022-11-08T01:18:56.880Z,32.6310
2022-11-08T01:19:08.069Z,32.5910
2022-11-08T01:19:19.279Z,32.5690
2022-11-08T01:19:30.478Z,32.5470
2022-11-08T01:19:41.519Z,32.5390
2022-11-08T01:19:52.570Z,32.5110
2022-11-08T01:20:03.760Z,32.5230
2022-11-08T01:20:14.960Z,32.5500
2022-11-08T01:20:26.168Z,32.5350
2022-11-08T01:20:37.359Z,32.5470
2022-11-08T01:20:48.570Z,32.5350
2022-11-08T01:20:59.758Z,32.5000
2022-11-08T01:21:10.953Z,32.4890
2022-11-08T01:21:22.159Z,32.5000
2022-11-08T01:21:33.359Z,32.5060
2022-11-08T01:21:44.400Z,32.5170
2022-11-08T01:21:55.439Z,32.5230
2022-11-08T01:22:06.646Z,32.5000
2022-11-08T01:22:17.848Z,32.4950
2022-11-08T01:22:29.043Z,32.5000
2022-11-08T01:22:40.239Z,32.4890
2022-11-08T01:22:51.440Z,32.4660
2022-11-08T01:23:02.639Z,32.4580
2022-11-08T01:23:13.863Z,32.4800
2022-11-08T01:23:25.163Z,32.5130
2022-11-08T01:23:36.239Z,32.5240
2022-11-08T01:23:47.288Z,32.4750
2022-11-08T01:23:58.328Z,32.4580
2022-11-08T01:24:09.378Z,32.4350
2022-11-08T01:24:20.408Z,32.4350
2022-11-08T01:24:31.601Z,32.4240
2022-11-08T01:24:42.799Z,32.4520
2022-11-08T01:24:53.848Z,32.4520
2022-11-08T01:25:04.921Z,32.4240
2022-11-08T01:25:16.079Z,32.4290
2022-11-08T01:25:27.285Z,32.4350
2022-11-08T01:25:38.481Z,32.4240
2022-11-08T01:25:49.695Z,32.4430
2022-11-08T01:26:00.749Z,32.4430
2022-11-08T01:26:11.808Z,32.4650
2022-11-08T01:26:22.959Z,32.4350
2022-11-08T01:26:34.163Z,32.4350
2022-11-08T01:26:45.361Z,32.4630
2022-11-08T01:26:56.559Z,32.4910
2022-11-08T01:27:07.763Z,32.4970
2022-11-08T01:27:18.969Z,32.5130
2022-11-08T01:27:30.159Z,32.4950
2022-11-08T01:27:41.359Z,32.4950
2022-11-08T01:27:52.567Z,32.4890
2022-11-08T01:28:03.618Z,32.4890
2022-11-08T01:28:14.982Z,32.4860
2022-11-08T01:28:26.220Z,32.4950
2022-11-08T01:28:37.358Z,32.4890
2022-11-08T01:28:48.583Z,32.4890
2022-11-08T01:28:59.761Z,32.4060
2022-11-08T01:29:10.959Z,32.4180
2022-11-08T01:29:22.160Z,32.4290
2022-11-08T01:29:33.366Z,32.4290
2022-11-08T01:29:44.460Z,32.4400
2022-11-08T01:29:55.529Z,32.4240
2022-11-08T01:30:06.640Z,32.4460
2022-11-08T01:30:17.839Z,32.4630
2022-11-08T01:30:28.927Z,32.5020
2022-11-08T01:30:39.958Z,32.4630
2022-11-08T01:30:51.118Z,32.4290
2022-11-08T01:31:02.319Z,32.4400
2022-11-08T01:31:13.519Z,32.4520
2022-11-08T01:31:24.718Z,32.4750
2022-11-08T01:31:35.918Z,32.4630
2022-11-08T01:31:47.121Z,32.4270
2022-11-08T01:31:58.319Z,32.3760
2022-11-08T01:32:09.369Z,32.3900
2022-11-08T01:32:20.428Z,32.4000
2022-11-08T01:32:31.601Z,32.4270
2022-11-08T01:32:42.798Z,32.4220
2022-11-08T01:32:53.990Z,32.4220
2022-11-08T01:33:05.201Z,32.3760
2022-11-08T01:33:16.412Z,32.3820
2022-11-08T01:33:27.641Z,32.3930
2022-11-08T01:33:38.797Z,32.3820
2022-11-08T01:33:51.521Z,32.4060
2022-11-08T01:34:03.159Z,32.4630
2022-11-08T01:34:14.319Z,32.4390
2022-11-08T01:34:25.519Z,32.4450
2022-11-08T01:34:36.720Z,32.4710
2022-11-08T01:34:47.929Z,32.4770
2022-11-08T01:34:59.119Z,32.5500
2022-11-08T01:35:10.325Z,32.5650
2022-11-08T01:35:21.519Z,32.5320
2022-11-08T01:35:32.720Z,32.5370
2022-11-08T01:35:43.922Z,32.5590
2022-11-08T01:35:55.120Z,32.5820
2022-11-08T01:36:06.317Z,32.6040
2022-11-08T01:36:17.518Z,32.5820
2022-11-08T01:36:28.719Z,32.5440
2022-11-08T01:36:39.918Z,32.5330
2022-11-08T01:36:50.958Z,32.5280
2022-11-08T01:37:02.015Z,32.5330
2022-11-08T01:37:13.201Z,32.5000
2022-11-08T01:37:24.408Z,32.4940
2022-11-08T01:37:35.589Z,32.4660
2022-11-08T01:37:46.801Z,32.4490
2022-11-08T01:37:58.000Z,32.4440
2022-11-08T01:38:09.049Z,32.4160
2022-11-08T01:38:20.550Z,32.3760
2022-11-08T01:38:31.981Z,32.3700
2022-11-08T01:38:43.120Z,32.3760
2022-11-08T01:38:54.170Z,32.3980
2022-11-08T01:39:05.210Z,32.4100
2022-11-08T01:39:16.400Z,32.3870
2022-11-08T01:39:27.599Z,32.3650
2022-11-08T01:39:38.799Z,32.3870
2022-11-08T01:39:49.999Z,32.4160
2022-11-08T01:40:01.050Z,32.4640
2022-11-08T01:40:12.080Z,32.5030
2022-11-08T01:40:23.278Z,32.4860
2022-11-08T01:40:34.480Z,32.4640
2022-11-08T01:40:45.678Z,32.4480
2022-11-08T01:40:56.878Z,32.4340
2022-11-08T01:41:08.080Z,32.4060
2022-11-08T01:41:19.287Z,32.4280
2022-11-08T01:41:30.479Z,32.4390
2022-11-08T01:41:41.680Z,32.3880
2022-11-08T01:41:52.881Z,32.3690
2022-11-08T01:42:03.928Z,32.3800
2022-11-08T01:42:14.969Z,32.3710
2022-11-08T01:42:26.159Z,32.3480
2022-11-08T01:42:37.361Z,32.3540
2022-11-08T01:42:48.549Z,32.3140
2022-11-08T01:42:59.772Z,32.3110
2022-11-08T01:43:10.959Z,32.3110
2022-11-08T01:43:22.159Z,32.3220
2022-11-08T01:43:33.228Z,32.3390
2022-11-08T01:43:44.289Z,32.3220
2022-11-08T01:43:55.464Z,32.3110
2022-11-08T01:44:06.640Z,32.2880
2022-11-08T01:44:17.839Z,32.2880
2022-11-08T01:44:29.039Z,32.2820
2022-11-08T01:44:40.239Z,32.3000
2022-11-08T01:44:51.446Z,32.2880
2022-11-08T01:45:02.644Z,32.2930
2022-11-08T01:45:13.680Z,32.3000
2022-11-08T01:45:24.719Z,32.2820
2022-11-08T01:45:35.926Z,32.2700
2022-11-08T01:45:46.960Z,32.2540
2022-11-08T01:45:58.009Z,32.2650
2022-11-08T01:46:09.198Z,32.2490
2022-11-08T01:46:20.295Z,32.2490
2022-11-08T01:46:31.346Z,32.2650
2022-11-08T01:46:42.489Z,32.2870
2022-11-08T01:46:53.686Z,32.2870
2022-11-08T01:47:04.879Z,32.3220
2022-11-08T01:47:16.083Z,32.3170
2022-11-08T01:47:27.132Z,32.3110
2022-11-08T01:47:38.208Z,32.2930
2022-11-08T01:47:49.359Z,32.2820
2022-11-08T01:48:00.553Z,32.2660
2022-11-08T01:48:11.765Z,32.2600
2022-11-08T01:48:22.960Z,32.2820
2022-11-08T01:48:34.279Z,32.3900
2022-11-08T01:48:45.360Z,32.4380
2022-11-08T01:48:56.559Z,32.3820
2022-11-08T01:49:07.619Z,32.3140
2022-11-08T01:49:18.688Z,32.2430
2022-11-08T01:49:29.856Z,32.2190
2022-11-08T01:49:41.038Z,32.2700
2022-11-08T01:49:52.240Z,32.3270
2022-11-08T01:50:03.289Z,32.3030
2022-11-08T01:50:14.329Z,32.2770
2022-11-08T01:50:25.530Z,32.2660
2022-11-08T01:50:36.589Z,32.2770
2022-11-08T01:50:47.658Z,32.2820
2022-11-08T01:50:58.809Z,32.2920
2022-11-08T01:51:09.868Z,32.2870
2022-11-08T01:51:20.929Z,32.2590
2022-11-08T01:51:32.084Z,32.2300
2022-11-08T01:51:43.129Z,32.2360
2022-11-08T01:51:54.202Z,32.2190
2022-11-08T01:52:05.358Z,32.2360
2022-11-08T01:52:16.567Z,32.2640
2022-11-08T01:52:27.759Z,32.2410
2022-11-08T01:52:38.962Z,32.2280
2022-11-08T01:52:50.158Z,32.1930
2022-11-08T01:53:01.358Z,32.2160
2022-11-08T01:53:12.570Z,32.1870
2022-11-08T01:53:23.759Z,32.1700
2022-11-08T01:53:34.988Z,32.1590
2022-11-08T01:53:46.041Z,32.1700
2022-11-08T01:53:57.098Z,32.1540
2022-11-08T01:54:08.245Z,32.1820
2022-11-08T01:54:19.439Z,32.1490
2022-11-08T01:54:30.639Z,32.1380
2022-11-08T01:54:41.840Z,32.1600
2022-11-08T01:54:53.038Z,32.1600
2022-11-08T01:55:04.246Z,32.2220
2022-11-08T01:55:15.278Z,32.2140
2022-11-08T01:55:26.320Z,32.1980
2022-11-08T01:55:37.358Z,32.1930
2022-11-08T01:55:48.409Z,32.1710
2022-11-08T01:55:59.468Z,32.1710
2022-11-08T01:56:10.538Z,32.1600
2022-11-08T01:56:21.687Z,32.1490
2022-11-08T01:56:32.742Z,32.1550
2022-11-08T01:56:43.806Z,32.1490
2022-11-08T01:56:54.963Z,32.1550
2022-11-08T01:57:06.001Z,32.1660
2022-11-08T01:57:17.048Z,32.1660
2022-11-08T01:57:28.240Z,32.1600
2022-11-08T01:57:39.288Z,32.1490
2022-11-08T01:57:50.368Z,32.1330
2022-11-08T01:58:01.529Z,32.1330
2022-11-08T01:58:12.598Z,32.1440
2022-11-08T01:58:23.671Z,32.1380
2022-11-08T01:58:34.811Z,32.1140
2022-11-08T01:58:45.879Z,32.0460
2022-11-08T01:58:56.940Z,32.0020
2022-11-08T01:59:08.103Z,31.9570
2022-11-08T01:59:19.118Z,31.9460
2022-11-08T01:59:30.170Z,31.9910
2022-11-08T01:59:41.358Z,32.0240
2022-11-08T01:59:52.420Z,32.0520
2022-11-08T02:00:03.479Z,32.0460
2022-11-08T02:00:14.639Z,32.0650
2022-11-08T02:00:25.679Z,32.1150
2022-11-08T02:00:36.729Z,32.1980
2022-11-08T02:00:48.008Z,32.2100
2022-11-08T02:00:59.121Z,32.1660
2022-11-08T02:01:10.309Z,32.1710
2022-11-08T02:01:21.627Z,32.1260
2022-11-08T02:01:32.813Z,32.1380
2022-11-08T02:01:44.185Z,32.1920
2022-11-08T02:01:55.672Z,32.2410
2022-11-08T02:02:07.106Z,32.2540
2022-11-08T02:02:18.281Z,32.2080
2022-11-08T02:02:29.401Z,32.2120
2022-11-08T02:02:40.801Z,32.2180
2022-11-08T02:02:52.119Z,32.1820
2022-11-08T02:03:03.286Z,32.1710
2022-11-08T02:03:14.479Z,32.1540
2022-11-08T02:03:25.679Z,32.1600
2022-11-08T02:03:36.879Z,32.1650
2022-11-08T02:03:48.110Z,32.1760
2022-11-08T02:03:59.180Z,32.1420
2022-11-08T02:04:10.241Z,32.1340
2022-11-08T02:04:21.358Z,32.1280
2022-11-08T02:04:32.560Z,32.1340
2022-11-08T02:04:43.608Z,32.1390
2022-11-08T02:04:54.681Z,32.1420
2022-11-08T02:05:05.838Z,32.1490
2022-11-08T02:05:16.888Z,32.1500
2022-11-08T02:05:27.932Z,32.1230
2022-11-08T02:05:39.119Z,32.0610
2022-11-08T02:05:50.318Z,32.0460
2022-11-08T02:06:01.520Z,32.0570
2022-11-08T02:06:12.719Z,32.0840
2022-11-08T02:06:23.918Z,32.1100
2022-11-08T02:06:34.976Z,32.1000
2022-11-08T02:06:46.039Z,32.0830
2022-11-08T02:06:57.199Z,32.1050
2022-11-08T02:07:08.407Z,32.0840
2022-11-08T02:07:19.606Z,32.0620
2022-11-08T02:07:30.799Z,32.0730
2022-11-08T02:07:42.000Z,32.0680
2022-11-08T02:07:53.199Z,32.0860
2022-11-08T02:08:04.399Z,32.0790
2022-11-08T02:08:15.967Z,32.0510
2022-11-08T02:08:27.463Z,32.0730
2022-11-08T02:08:38.639Z,32.0460
2022-11-08T02:08:49.849Z,32.0460
2022-11-08T02:09:01.039Z,32.0410
2022-11-08T02:09:12.240Z,32.0570
2022-11-08T02:09:23.428Z,32.0440
2022-11-08T02:09:34.649Z,32.0410
2022-11-08T02:09:45.849Z,32.0200
2022-11-08T02:09:57.040Z,32.0510
2022-11-08T02:10:08.239Z,32.0620
2022-11-08T02:10:19.289Z,32.0950
2022-11-08T02:10:30.318Z,32.0840
2022-11-08T02:10:41.518Z,32.0560
2022-11-08T02:10:52.701Z,32.0400
2022-11-08T02:11:03.918Z,32.0230
2022-11-08T02:11:15.125Z,31.9890
2022-11-08T02:11:26.315Z,31.9560
2022-11-08T02:11:37.524Z,31.9160
2022-11-08T02:11:48.563Z,31.9580
2022-11-08T02:11:59.612Z,31.9980
2022-11-08T02:12:10.799Z,31.9940
2022-11-08T02:12:22.005Z,32.0100
2022-11-08T02:12:33.207Z,32.0270
2022-11-08T02:12:44.398Z,32.0920
2022-11-08T02:12:55.460Z,32.0560
2022-11-08T02:13:10.752Z,32.0730
2022-11-08T02:13:23.488Z,32.2460
2022-11-08T02:13:34.649Z,32.1610
2022-11-08T02:13:45.838Z,32.1210
2022-11-08T02:13:57.078Z,32.1040
2022-11-08T02:14:08.129Z,32.0620
2022-11-08T02:14:19.220Z,32.0230
2022-11-08T02:14:30.318Z,32.0290
2022-11-08T02:14:41.366Z,32.0110
2022-11-08T02:14:52.399Z,32.0340
2022-11-08T02:15:03.600Z,32.0340
2022-11-08T02:15:14.798Z,32.0450
2022-11-08T02:15:26.000Z,32.0790